Aérodrome :
LOGIN :

S'inscrire | Disclaimer

   EN    FR    IT 

 










Légende :    VFR   VFR Marginal   IFR   IFR Intensif   IFR Très Intensif
Visi : 
Plafond : 
>= 8 km
>= 3000ft
5 à 8 km
1000 à 3000 ft
1500m à 5 km
500 à 1000 ft
800 à 1500m
200 à 500 ft
< 800m
< 200 ft
Symboles :   Orages  Brouillard  Fortes neiges  Fortes précipitations  Vent > 20 kt
SIGMETs :   Divers  Orages  Givrage  Turbulence  Onde Orograph.  Cendres Volcan.







- Altitude de l'aérodrome : 195 ft
- Voir les cartes d'approche


LFMY - Salon de Provence

DERNIER METAR :
  • 281000Z AUTO 28004KT 220V340 9999 // ///CB 23/17 Q1003

METARs EXPIRÉS :
  • 280930Z AUTO 28006KT 250V310 9999 // ///CB 22/18 Q1004
  • 280900Z AUTO 28005KT 9999 // FEW024/// OVC074/// ///CB 21/17 Q1004
  • 280830Z AUTO 26005KT 9999 // NSC 22/15 Q1004
  • 280800Z AUTO 32006KT 290V350 9999 // NSC 23/15 Q1003
  • 280730Z AUTO 33005KT 280V360 9999 // NSC 22/15 Q1004

TAF TAF LFMY
Valide du 28 à 09h jusqu'au 29 à 09h UTC


280800Z 2809/2909 27012KT CAVOK
TEMPO 2812/2819 26015G25KT 5000 SHRA SCT020TCU
PROB30
TEMPO 2813/2816 4000 TSRA SCT020CB
Pas de NOTAMs connus pour ce terrain.
2 SIGMETs publiés pour la FIR Marseille (LFMM) :
 
Orages noyés dans la masse
LFMM SIGMET 8 VALID 280940/281100 LFPW
LFMM MARSEILLE FIR/UIR EMBD TS FCST WI N4415 E00500 - N4445 E00700 - N4345 E00700 - N4315 E00600 - N4330 E00515 TOP FL330 MOV NE 25KT INTSF=
Orages noyés dans la masse
LFMM SIGMET 7 VALID 280900/281100 LFPW
LFMM MARSEILLE FIR/UIR EMBD TS OBS AT 0900Z WI N4145 E00500 - N4230 E00500 - N4230 E00615 - N4145 E00615 TOP FL330 MOV NE 25KT NC=



MET'MAP, la Météo Aéronautique d'un coup d'oeil ! - Copyright ORBIFLY Décembre 2007 - Disclaimer

ORBIFLY MET'MAP TEAM :

Programmation & Développement : Alexandra Zaïnal
Conception & Développement : Baudouin d'Aumeries
Co-Programmation & Développement : Marc-Olivier Méhu
Soutien technique & logistique : Manuel Goepfert

Contact : metmap@orbifly.com




SOURCES & CREDITS :

   NOAA